createdAt,value
2024-02-05T00:03:35.290Z,21.00
2024-02-05T00:08:38.297Z,21.00
2024-02-05T00:13:42.518Z,21.00
2024-02-05T00:18:45.701Z,21.00
2024-02-05T00:23:48.645Z,20.90
2024-02-05T00:28:52.918Z,21.00
2024-02-05T00:33:56.019Z,21.00
2024-02-05T00:38:58.994Z,21.00
2024-02-05T00:44:03.247Z,21.00
2024-02-05T00:49:07.446Z,20.90
2024-02-05T00:54:10.387Z,20.90
2024-02-05T00:59:14.705Z,20.90
2024-02-05T01:04:17.785Z,20.90
2024-02-05T01:09:22.640Z,20.90
2024-02-05T01:14:28.667Z,20.90
2024-02-05T01:19:32.446Z,20.90
2024-02-05T01:24:35.526Z,20.90
2024-02-05T01:29:40.026Z,21.00
2024-02-05T01:34:43.728Z,20.90
2024-02-05T01:39:46.813Z,20.90
2024-02-05T01:44:51.094Z,20.90
2024-02-05T01:49:54.133Z,20.90
2024-02-05T01:54:57.127Z,20.90
2024-02-05T02:00:02.153Z,20.90
2024-02-05T02:05:05.741Z,20.90
2024-02-05T02:10:09.715Z,20.90
2024-02-05T02:15:14.130Z,20.90
2024-02-05T02:20:18.283Z,20.90
2024-02-05T02:25:22.906Z,20.90
2024-02-05T02:30:26.100Z,20.90
2024-02-05T02:35:30.688Z,20.90
2024-02-05T02:40:36.125Z,21.00
2024-02-05T02:45:39.213Z,21.00
2024-02-05T02:50:43.439Z,20.90
2024-02-05T02:55:47.990Z,20.90
2024-02-05T03:00:50.945Z,20.90
2024-02-05T03:05:53.898Z,20.80
2024-02-05T03:10:58.194Z,20.80
2024-02-05T03:16:01.189Z,20.90
2024-02-05T03:21:04.456Z,20.90
2024-02-05T03:26:09.660Z,20.90
2024-02-05T03:31:12.683Z,20.90
2024-02-05T03:36:15.614Z,20.90
2024-02-05T03:41:19.884Z,20.80
2024-02-05T03:46:22.866Z,20.90
2024-02-05T03:51:25.810Z,20.90
2024-02-05T03:56:30.031Z,20.90
2024-02-05T04:01:32.973Z,20.90
2024-02-05T04:06:36.002Z,20.90
2024-02-05T04:11:41.938Z,21.10
2024-02-05T04:16:44.839Z,21.30
2024-02-05T04:21:47.760Z,21.40
2024-02-05T04:26:52.017Z,21.40
2024-02-05T04:31:54.976Z,21.50
2024-02-05T04:36:57.884Z,21.50
2024-02-05T04:42:02.164Z,21.40
2024-02-05T04:47:05.789Z,21.40
2024-02-05T04:52:08.711Z,21.40
2024-02-05T04:57:12.919Z,21.50
2024-02-05T05:02:16.285Z,21.50
2024-02-05T05:07:20.747Z,21.60
2024-02-05T05:12:25.096Z,21.60
2024-02-05T05:17:28.019Z,21.60
2024-02-05T05:22:30.974Z,21.50
2024-02-05T05:27:35.210Z,21.60
2024-02-05T05:32:38.145Z,21.60
2024-02-05T05:37:42.049Z,21.60
2024-02-05T05:42:46.363Z,21.60
2024-02-05T05:47:49.933Z,21.60
2024-02-05T05:52:52.864Z,21.60
2024-02-05T05:57:57.369Z,21.60
2024-02-05T06:03:00.419Z,21.70
2024-02-05T06:08:03.382Z,21.80
2024-02-05T06:13:07.838Z,21.70
2024-02-05T06:18:11.131Z,21.70
2024-02-05T06:23:14.142Z,21.80
2024-02-05T06:28:18.678Z,21.80
2024-02-05T06:33:21.745Z,21.60
2024-02-05T06:38:24.649Z,21.70
2024-02-05T06:43:29.659Z,21.70
2024-02-05T06:48:35.233Z,21.70
2024-02-05T06:53:38.281Z,21.80
2024-02-05T06:58:42.573Z,21.70
2024-02-05T07:03:45.639Z,21.80
2024-02-05T07:08:48.575Z,21.80
2024-02-05T07:13:52.798Z,21.80
2024-02-05T07:18:55.756Z,21.80
2024-02-05T07:23:58.773Z,21.80
2024-02-05T07:29:03.088Z,21.80
2024-02-05T07:34:06.248Z,21.90
2024-02-05T07:39:11.138Z,21.90
2024-02-05T07:44:15.385Z,21.80
2024-02-05T07:49:18.421Z,21.90
2024-02-05T07:54:21.420Z,21.90
2024-02-05T07:59:25.699Z,21.90
2024-02-05T08:04:30.961Z,22.00
2024-02-05T08:09:36.283Z,21.90
2024-02-05T08:14:41.079Z,21.90
2024-02-05T08:19:44.349Z,22.00
2024-02-05T08:24:47.982Z,22.00
2024-02-05T08:29:52.300Z,22.00
2024-02-05T08:34:56.819Z,22.00
2024-02-05T08:39:59.963Z,22.00
2024-02-05T08:45:05.122Z,22.00
2024-02-05T08:50:09.033Z,22.00
2024-02-05T08:55:12.105Z,22.00
2024-02-05T09:00:18.831Z,22.00
2024-02-05T09:05:32.997Z,22.10
2024-02-05T09:10:40.873Z,22.10
2024-02-05T09:15:45.181Z,22.10
2024-02-05T09:20:48.115Z,22.10
2024-02-05T09:25:51.251Z,22.10
2024-02-05T09:31:02.048Z,22.00
2024-02-05T09:36:12.231Z,21.90
2024-02-05T09:41:19.961Z,22.00
2024-02-05T09:46:24.716Z,22.10
2024-02-05T09:51:29.441Z,22.00
2024-02-05T09:56:37.417Z,22.10
2024-02-05T10:01:42.019Z,22.10
2024-02-05T10:06:47.386Z,22.10
2024-02-05T10:11:51.328Z,22.10
2024-02-05T10:16:55.567Z,22.10
2024-02-05T10:21:58.764Z,22.20
2024-02-05T10:27:01.855Z,22.20
2024-02-05T10:32:08.456Z,22.20
2024-02-05T10:37:12.996Z,22.20
2024-02-05T10:42:17.364Z,22.20
2024-02-05T10:47:23.709Z,22.20
2024-02-05T10:52:26.813Z,22.30
2024-02-05T10:57:31.578Z,22.20
2024-02-05T11:02:37.636Z,22.20
2024-02-05T11:07:46.405Z,22.20
2024-02-05T11:12:50.279Z,22.20
2024-02-05T11:17:57.025Z,22.20
2024-02-05T11:23:00.634Z,22.20
2024-02-05T11:28:04.205Z,22.20
2024-02-05T11:33:08.699Z,22.20
2024-02-05T11:38:11.669Z,22.30
2024-02-05T11:43:14.684Z,22.30
2024-02-05T11:48:19.996Z,22.30
2024-02-05T11:53:23.225Z,22.30
2024-02-05T11:58:26.531Z,22.30
2024-02-05T12:03:30.970Z,22.30
2024-02-05T12:08:34.282Z,22.30
2024-02-05T12:13:37.237Z,22.30
2024-02-05T12:18:46.320Z,22.40
2024-02-05T12:23:51.031Z,22.50
2024-02-05T12:28:53.990Z,22.60
2024-02-05T12:34:00.222Z,22.70
2024-02-05T12:39:03.833Z,22.80
2024-02-05T12:44:13.993Z,22.80
2024-02-05T12:49:26.420Z,22.80
2024-02-05T12:54:30.699Z,22.90
2024-02-05T12:59:34.379Z,22.70
2024-02-05T13:04:38.984Z,22.60
2024-02-05T13:09:43.304Z,22.60
2024-02-05T13:14:46.802Z,22.50
2024-02-05T13:19:51.223Z,22.50
2024-02-05T13:24:54.202Z,22.40
2024-02-05T13:29:57.133Z,22.50
2024-02-05T13:35:01.992Z,22.40
2024-02-05T13:40:06.540Z,22.50
2024-02-05T13:45:10.756Z,22.40
2024-02-05T13:50:15.270Z,22.40
2024-02-05T13:55:19.421Z,22.40
2024-02-05T14:00:22.952Z,22.40
2024-02-05T14:05:27.359Z,22.40
2024-02-05T14:10:30.457Z,22.40
2024-02-05T14:15:35.793Z,22.50
2024-02-05T14:20:39.999Z,22.50
2024-02-05T14:25:42.971Z,22.40
2024-02-05T14:30:45.989Z,22.40
2024-02-05T14:35:50.296Z,22.40
2024-02-05T14:40:53.249Z,22.40
2024-02-05T14:45:57.711Z,22.40
2024-02-05T14:51:02.122Z,22.60
2024-02-05T14:56:06.502Z,22.50
2024-02-05T15:01:10.017Z,22.50
2024-02-05T15:06:14.718Z,22.50
2024-02-05T15:11:17.827Z,22.40
2024-02-05T15:16:21.188Z,22.40
2024-02-05T15:21:26.123Z,22.40
2024-02-05T15:26:29.073Z,22.30
2024-02-05T15:31:32.758Z,22.30
2024-02-05T15:36:38.125Z,22.30
2024-02-05T15:41:41.064Z,22.40
2024-02-05T15:46:44.045Z,22.40
2024-02-05T15:51:48.718Z,22.50
2024-02-05T15:56:51.712Z,22.60
2024-02-05T16:01:54.932Z,23.30
2024-02-05T16:06:59.954Z,23.60
2024-02-05T16:12:03.501Z,23.20
2024-02-05T16:17:06.650Z,22.80
2024-02-05T16:22:11.035Z,22.70
2024-02-05T16:27:14.056Z,22.60
2024-02-05T16:32:19.937Z,22.70
2024-02-05T16:37:26.785Z,22.70
2024-02-05T16:42:30.824Z,22.70
2024-02-05T16:47:33.822Z,22.60
2024-02-05T16:52:38.927Z,22.60
2024-02-05T16:57:41.929Z,22.60
2024-02-05T17:02:44.795Z,22.60
2024-02-05T17:07:49.285Z,22.60
2024-02-05T17:12:52.319Z,22.50
2024-02-05T17:17:55.889Z,22.60
2024-02-05T17:23:00.289Z,22.60
2024-02-05T17:28:03.308Z,22.60
2024-02-05T17:33:06.567Z,22.60
2024-02-05T17:38:12.055Z,22.60
2024-02-05T17:43:16.071Z,22.50
2024-02-05T17:48:18.998Z,22.50
2024-02-05T17:53:23.256Z,22.50
2024-02-05T17:58:26.317Z,22.50
2024-02-05T18:03:29.338Z,22.50
2024-02-05T18:08:33.710Z,22.50
2024-02-05T18:13:36.776Z,22.50
2024-02-05T18:18:39.982Z,22.40
2024-02-05T18:23:45.442Z,22.40
2024-02-05T18:28:48.382Z,22.40
2024-02-05T18:33:51.455Z,22.30
2024-02-05T18:38:55.784Z,22.30
2024-02-05T18:43:58.656Z,22.10
2024-02-05T18:49:04.039Z,22.20
2024-02-05T18:54:09.361Z,22.10
2024-02-05T18:59:12.318Z,22.10
2024-02-05T19:04:15.445Z,22.00
2024-02-05T19:09:20.886Z,22.00
2024-02-05T19:14:24.428Z,22.10
2024-02-05T19:19:27.487Z,22.00
2024-02-05T19:24:31.961Z,22.00
2024-02-05T19:29:35.055Z,22.00
2024-02-05T19:34:38.238Z,22.00
2024-02-05T19:39:42.673Z,22.00
2024-02-05T19:44:45.614Z,22.00
2024-02-05T19:49:48.738Z,21.90
2024-02-05T19:54:53.457Z,21.90
2024-02-05T19:59:56.503Z,21.90
2024-02-05T20:04:59.713Z,21.90
2024-02-05T20:10:04.748Z,21.90
2024-02-05T20:15:10.572Z,21.90
2024-02-05T20:20:14.288Z,21.90
2024-02-05T20:25:18.775Z,21.90
2024-02-05T20:30:22.468Z,21.80
2024-02-05T20:35:25.441Z,21.80
2024-02-05T20:40:30.447Z,21.90
2024-02-05T20:45:34.183Z,21.80
2024-02-05T20:50:37.333Z,21.80
2024-02-05T20:55:41.861Z,21.80
2024-02-05T21:00:47.520Z,21.80
2024-02-05T21:05:50.558Z,21.80
2024-02-05T21:10:54.810Z,21.70
2024-02-05T21:15:57.772Z,21.70
2024-02-05T21:21:02.342Z,21.80
2024-02-05T21:26:06.703Z,21.70
2024-02-05T21:31:09.931Z,21.70
2024-02-05T21:36:12.934Z,21.70
2024-02-05T21:41:17.333Z,21.70
2024-02-05T21:46:20.383Z,21.70
2024-02-05T21:51:23.618Z,21.70
2024-02-05T21:56:27.906Z,21.60
2024-02-05T22:01:30.888Z,21.60
2024-02-05T22:06:34.587Z,21.60
2024-02-05T22:11:38.919Z,21.70
2024-02-05T22:16:41.812Z,21.60
2024-02-05T22:21:44.754Z,21.70
2024-02-05T22:26:48.995Z,21.60
2024-02-05T22:31:52.030Z,21.60
2024-02-05T22:36:54.926Z,21.60
2024-02-05T22:41:59.424Z,21.50
2024-02-05T22:47:02.287Z,21.60
2024-02-05T22:52:06.148Z,21.50
2024-02-05T22:57:11.632Z,21.60
2024-02-05T23:02:14.771Z,21.60
2024-02-05T23:07:19.112Z,21.70
2024-02-05T23:12:24.213Z,21.60
2024-02-05T23:17:27.261Z,21.60
2024-02-05T23:22:30.759Z,21.60
2024-02-05T23:27:35.124Z,21.50
2024-02-05T23:32:38.630Z,21.50
2024-02-05T23:37:41.821Z,21.60
2024-02-05T23:42:46.101Z,21.60
2024-02-05T23:47:49.069Z,21.50
2024-02-05T23:52:52.027Z,21.60
2024-02-05T23:57:56.426Z,21.50
